createdAt,value
2023-05-06T00:01:15.910Z,11.71
2023-05-06T00:03:42.413Z,11.81
2023-05-06T00:06:09.133Z,11.73
2023-05-06T00:08:35.720Z,11.66
2023-05-06T00:11:02.092Z,11.72
2023-05-06T00:13:28.376Z,11.71
2023-05-06T00:15:54.720Z,11.67
2023-05-06T00:18:22.774Z,11.67
2023-05-06T00:20:49.228Z,11.60
2023-05-06T00:23:15.520Z,11.52
2023-05-06T00:25:41.901Z,11.50
2023-05-06T00:28:08.219Z,11.50
2023-05-06T00:30:34.572Z,11.48
2023-05-06T00:33:01.011Z,11.45
2023-05-06T00:35:27.326Z,11.53
2023-05-06T00:38:07.753Z,11.49
2023-05-06T00:40:34.113Z,11.51
2023-05-06T00:43:00.434Z,11.48
2023-05-06T00:45:26.813Z,11.61
2023-05-06T00:47:53.338Z,11.51
2023-05-06T00:50:19.780Z,11.56
2023-05-06T00:52:46.518Z,11.62
2023-05-06T00:55:13.073Z,11.62
2023-05-06T00:57:40.204Z,11.56
2023-05-06T01:00:11.509Z,11.55
2023-05-06T01:02:46.372Z,11.54
2023-05-06T01:05:14.424Z,11.49
2023-05-06T01:07:43.971Z,11.49
2023-05-06T01:10:28.917Z,11.43
2023-05-06T01:13:04.855Z,11.45
2023-05-06T01:15:38.113Z,11.38
2023-05-06T01:18:11.708Z,11.38
2023-05-06T01:20:38.852Z,11.37
2023-05-06T01:23:12.925Z,11.25
2023-05-06T01:25:39.296Z,11.31
2023-05-06T01:28:10.055Z,11.16
2023-05-06T01:30:40.622Z,11.15
2023-05-06T01:33:14.634Z,11.28
2023-05-06T01:35:49.639Z,11.17
2023-05-06T01:38:21.636Z,11.15
2023-05-06T01:40:49.967Z,11.05
2023-05-06T01:43:18.258Z,10.95
2023-05-06T01:45:49.456Z,10.78
2023-05-06T01:48:16.704Z,10.81
2023-05-06T01:50:43.349Z,10.83
2023-05-06T01:53:09.680Z,10.92
2023-05-06T01:55:35.996Z,10.68
2023-05-06T01:58:02.253Z,10.84
2023-05-06T02:00:28.652Z,10.79
2023-05-06T02:02:55.029Z,10.89
2023-05-06T02:05:21.574Z,10.87
2023-05-06T02:07:47.900Z,10.88
2023-05-06T02:10:14.228Z,10.88
2023-05-06T02:12:40.617Z,10.62
2023-05-06T02:15:07.680Z,10.46
2023-05-06T02:17:35.694Z,10.67
2023-05-06T02:20:02.018Z,10.72
2023-05-06T02:22:28.323Z,10.64
2023-05-06T02:24:54.639Z,10.22
2023-05-06T02:27:20.955Z,10.38
2023-05-06T02:29:47.258Z,10.43
2023-05-06T02:32:14.034Z,10.46
2023-05-06T02:34:40.325Z,10.57
2023-05-06T02:37:06.646Z,10.58
2023-05-06T02:39:32.957Z,10.55
2023-05-06T02:41:59.222Z,10.48
2023-05-06T02:44:25.635Z,10.51
2023-05-06T02:46:51.941Z,10.52
2023-05-06T02:49:18.271Z,10.37
2023-05-06T02:51:44.588Z,10.07
2023-05-06T02:54:10.971Z,10.34
2023-05-06T02:56:37.346Z,10.44
2023-05-06T02:59:03.788Z,10.48
2023-05-06T03:01:30.195Z,10.51
2023-05-06T03:03:56.492Z,10.50
2023-05-06T03:06:22.875Z,10.47
2023-05-06T03:08:49.146Z,10.37
2023-05-06T03:11:15.748Z,10.52
2023-05-06T03:13:42.056Z,10.51
2023-05-06T03:16:12.042Z,10.43
2023-05-06T03:18:38.369Z,10.29
2023-05-06T03:21:04.940Z,10.26
2023-05-06T03:23:31.963Z,10.28
2023-05-06T03:25:58.310Z,10.22
2023-05-06T03:28:24.618Z,10.25
2023-05-06T03:30:50.908Z,10.08
2023-05-06T03:33:17.205Z,10.13
2023-05-06T03:35:43.603Z,10.13
2023-05-06T03:38:09.978Z,10.14
2023-05-06T03:40:36.267Z,9.77
2023-05-06T03:43:02.576Z,9.91
2023-05-06T03:45:28.962Z,9.98
2023-05-06T03:47:55.453Z,9.83
2023-05-06T03:50:21.885Z,9.87
2023-05-06T03:52:48.229Z,9.91
2023-05-06T03:55:14.514Z,9.89
2023-05-06T03:57:40.853Z,9.93
2023-05-06T04:00:07.730Z,9.89
2023-05-06T04:02:35.119Z,9.93
2023-05-06T04:05:01.595Z,9.76
2023-05-06T04:07:27.901Z,9.82
2023-05-06T04:09:54.204Z,9.75
2023-05-06T04:12:20.798Z,9.67
2023-05-06T04:14:47.744Z,9.71
2023-05-06T04:17:14.043Z,9.70
2023-05-06T04:19:40.362Z,9.59
2023-05-06T04:22:06.630Z,9.43
2023-05-06T04:24:33.734Z,9.50
2023-05-06T04:27:00.132Z,9.44
2023-05-06T04:29:26.964Z,9.39
2023-05-06T04:31:53.853Z,9.33
2023-05-06T04:34:20.415Z,9.11
2023-05-06T04:36:49.483Z,9.41
2023-05-06T04:39:16.317Z,9.41
2023-05-06T04:41:42.810Z,9.39
2023-05-06T04:44:09.140Z,9.28
2023-05-06T04:46:36.032Z,9.27
2023-05-06T04:49:02.602Z,9.22
2023-05-06T04:51:28.895Z,9.18
2023-05-06T04:53:55.228Z,9.39
2023-05-06T04:56:21.554Z,9.30
2023-05-06T04:58:47.851Z,9.27
2023-05-06T05:01:14.975Z,9.00
2023-05-06T05:03:41.455Z,9.11
2023-05-06T05:06:07.797Z,9.19
2023-05-06T05:08:34.111Z,9.04
2023-05-06T05:11:00.439Z,9.06
2023-05-06T05:13:26.749Z,8.97
2023-05-06T05:15:56.307Z,8.99
2023-05-06T05:18:22.984Z,9.08
2023-05-06T05:20:49.395Z,9.14
2023-05-06T05:23:16.067Z,9.20
2023-05-06T05:25:42.432Z,9.16
2023-05-06T05:28:08.720Z,9.21
2023-05-06T05:30:35.003Z,9.31
2023-05-06T05:33:01.440Z,9.20
2023-05-06T05:35:27.830Z,9.28
2023-05-06T05:37:54.660Z,9.36
2023-05-06T05:40:20.989Z,9.38
2023-05-06T05:42:47.268Z,9.26
2023-05-06T05:45:13.615Z,9.23
2023-05-06T05:47:40.014Z,9.26
2023-05-06T05:50:06.861Z,9.36
2023-05-06T05:52:33.175Z,9.23
2023-05-06T05:54:59.549Z,9.24
2023-05-06T05:57:25.859Z,9.24
2023-05-06T05:59:52.171Z,8.80
2023-05-06T06:02:18.601Z,9.01
2023-05-06T06:04:44.926Z,9.06
2023-05-06T06:07:11.521Z,8.98
2023-05-06T06:09:38.274Z,9.11
2023-05-06T06:12:04.642Z,9.11
2023-05-06T06:14:30.945Z,9.00
2023-05-06T06:16:57.306Z,9.03
2023-05-06T06:19:23.630Z,9.13
2023-05-06T06:21:49.990Z,8.96
2023-05-06T06:24:16.341Z,8.93
2023-05-06T06:26:42.630Z,9.03
2023-05-06T06:29:08.966Z,8.93
2023-05-06T06:31:35.375Z,9.06
2023-05-06T06:34:06.273Z,9.00
2023-05-06T06:36:32.932Z,9.08
2023-05-06T06:38:59.266Z,8.99
2023-05-06T06:41:26.603Z,9.14
2023-05-06T06:43:52.979Z,8.79
2023-05-06T06:46:19.472Z,8.56
2023-05-06T06:48:45.824Z,8.86
2023-05-06T06:51:12.104Z,8.69
2023-05-06T06:53:38.432Z,9.09
2023-05-06T06:56:08.505Z,9.17
2023-05-06T06:58:34.832Z,9.20
2023-05-06T07:01:01.158Z,9.22
2023-05-06T07:03:27.463Z,9.24
2023-05-06T07:05:53.750Z,9.24
2023-05-06T07:08:21.514Z,9.31
2023-05-06T07:10:48.011Z,9.26
2023-05-06T07:13:14.516Z,9.28
2023-05-06T07:15:40.996Z,9.34
2023-05-06T07:18:07.301Z,9.24
2023-05-06T07:20:33.615Z,8.99
2023-05-06T07:22:59.977Z,9.24
2023-05-06T07:25:27.364Z,9.25
2023-05-06T07:27:53.683Z,9.32
2023-05-06T07:30:22.873Z,9.43
2023-05-06T07:32:49.583Z,8.92
2023-05-06T07:35:16.106Z,9.17
2023-05-06T07:37:42.399Z,9.39
2023-05-06T07:40:08.947Z,9.42
2023-05-06T07:42:35.367Z,9.43
2023-05-06T07:45:01.752Z,9.56
2023-05-06T07:47:29.557Z,9.57
2023-05-06T07:49:56.229Z,9.73
2023-05-06T07:52:22.936Z,9.63
2023-05-06T07:54:49.351Z,9.88
2023-05-06T07:57:16.070Z,9.83
2023-05-06T07:59:49.321Z,9.89
2023-05-06T08:02:16.022Z,10.01
2023-05-06T08:04:42.969Z,10.06
2023-05-06T08:07:10.268Z,10.02
2023-05-06T08:09:36.921Z,9.74
2023-05-06T08:12:03.670Z,9.92
2023-05-06T08:14:30.044Z,9.95
2023-05-06T08:16:56.350Z,9.60
2023-05-06T08:19:22.808Z,9.82
2023-05-06T08:21:49.190Z,9.88
2023-05-06T08:24:15.577Z,9.96
2023-05-06T08:26:41.983Z,9.90
2023-05-06T08:29:08.295Z,9.90
2023-05-06T08:31:34.665Z,9.83
2023-05-06T08:34:01.139Z,9.82
2023-05-06T08:36:27.460Z,9.78
2023-05-06T08:38:53.765Z,9.86
2023-05-06T08:41:21.533Z,9.87
2023-05-06T08:43:48.644Z,9.73
2023-05-06T08:46:15.259Z,9.90
2023-05-06T08:48:41.720Z,9.88
2023-05-06T08:51:08.418Z,9.87
2023-05-06T08:53:35.112Z,9.73
2023-05-06T08:56:06.326Z,9.80
2023-05-06T08:58:35.978Z,9.85
2023-05-06T09:01:03.131Z,9.98
2023-05-06T09:03:29.798Z,9.99
2023-05-06T09:05:56.766Z,10.02
2023-05-06T09:08:23.217Z,10.03
2023-05-06T09:10:49.595Z,9.82
2023-05-06T09:13:17.554Z,10.00
2023-05-06T09:15:44.724Z,9.81
2023-05-06T09:18:11.456Z,10.00
2023-05-06T09:20:42.381Z,9.73
2023-05-06T09:23:09.507Z,9.80
2023-05-06T09:25:36.662Z,9.90
2023-05-06T09:28:03.750Z,9.90
2023-05-06T09:30:30.127Z,10.03
2023-05-06T09:32:57.009Z,9.93
2023-05-06T09:35:34.975Z,9.98
2023-05-06T09:38:01.246Z,9.97
2023-05-06T09:40:29.113Z,9.72
2023-05-06T09:42:56.102Z,9.89
2023-05-06T09:45:24.193Z,9.98
2023-05-06T09:47:53.734Z,9.87
2023-05-06T09:50:23.865Z,9.81
2023-05-06T09:52:50.684Z,9.83
2023-05-06T09:55:20.952Z,9.70
2023-05-06T09:57:50.330Z,9.88
2023-05-06T10:00:17.097Z,9.97
2023-05-06T10:02:44.291Z,9.72
2023-05-06T10:05:12.429Z,9.86
2023-05-06T10:07:39.803Z,9.83
2023-05-06T10:10:10.986Z,9.99
2023-05-06T10:12:37.480Z,9.97
2023-05-06T10:15:04.492Z,10.09
2023-05-06T10:17:31.572Z,10.17
2023-05-06T10:20:01.684Z,10.14
2023-05-06T10:22:30.768Z,10.16
2023-05-06T10:25:03.872Z,10.10
2023-05-06T10:27:31.030Z,10.19
2023-05-06T10:29:59.378Z,10.10
2023-05-06T10:32:27.128Z,10.29
2023-05-06T10:34:55.045Z,10.30
2023-05-06T10:37:25.902Z,10.36
2023-05-06T10:39:56.460Z,10.39
2023-05-06T10:42:26.733Z,10.38
2023-05-06T10:45:00.187Z,10.39
2023-05-06T10:47:26.999Z,10.34
2023-05-06T10:50:12.222Z,10.40
2023-05-06T10:52:45.348Z,10.12
2023-05-06T10:55:28.038Z,10.03
2023-05-06T10:57:56.608Z,10.07
2023-05-06T11:00:23.280Z,9.52
2023-05-06T11:02:51.622Z,9.87
2023-05-06T11:05:18.107Z,10.01
2023-05-06T11:07:44.466Z,9.84
2023-05-06T11:10:11.330Z,10.04
2023-05-06T11:12:44.946Z,10.04
2023-05-06T11:15:27.495Z,10.10
2023-05-06T11:17:55.849Z,10.04
2023-05-06T11:20:22.838Z,10.08
2023-05-06T11:22:49.463Z,10.13
2023-05-06T11:25:35.946Z,10.05
2023-05-06T11:28:06.875Z,10.03
2023-05-06T11:30:33.255Z,10.11
2023-05-06T11:33:05.417Z,9.52
2023-05-06T11:35:37.709Z,9.89
2023-05-06T11:38:04.712Z,9.89
2023-05-06T11:40:31.242Z,9.94
2023-05-06T11:43:10.315Z,10.00
2023-05-06T11:45:40.033Z,9.94
2023-05-06T11:48:06.580Z,9.86
2023-05-06T11:50:32.993Z,9.64
2023-05-06T11:52:59.293Z,9.82
2023-05-06T11:55:26.056Z,10.01
2023-05-06T11:57:53.151Z,9.90
2023-05-06T12:00:20.462Z,9.99
2023-05-06T12:02:46.832Z,10.02
2023-05-06T12:05:13.683Z,10.02
2023-05-06T12:07:42.587Z,9.92
2023-05-06T12:10:09.513Z,9.92
2023-05-06T12:12:36.078Z,10.05
2023-05-06T12:15:03.801Z,9.81
2023-05-06T12:17:30.241Z,10.00
2023-05-06T12:19:56.700Z,9.54
2023-05-06T12:22:24.680Z,9.51
2023-05-06T12:24:51.167Z,9.85
2023-05-06T12:27:33.509Z,9.94
2023-05-06T12:30:00.660Z,9.95
2023-05-06T12:32:27.161Z,10.11
2023-05-06T12:34:54.060Z,10.12
2023-05-06T12:37:27.703Z,10.10
2023-05-06T12:39:56.340Z,10.09
2023-05-06T12:42:24.745Z,10.18
2023-05-06T12:44:51.112Z,10.23
2023-05-06T12:47:24.975Z,10.22
2023-05-06T12:49:52.699Z,10.25
2023-05-06T12:52:22.698Z,10.32
2023-05-06T12:54:49.819Z,10.32
2023-05-06T12:57:16.353Z,10.31
2023-05-06T12:59:43.647Z,10.39
2023-05-06T13:02:10.063Z,9.95
2023-05-06T13:04:36.458Z,10.05
2023-05-06T13:07:02.808Z,10.22
2023-05-06T13:09:29.135Z,10.21
2023-05-06T13:11:55.591Z,10.25
2023-05-06T13:14:22.510Z,10.20
2023-05-06T13:16:49.410Z,10.32
2023-05-06T13:21:46.308Z,10.32
2023-05-06T13:24:24.676Z,10.18
2023-05-06T13:26:51.028Z,10.33
2023-05-06T13:29:17.399Z,10.35
2023-05-06T13:31:43.673Z,10.36
2023-05-06T13:34:09.971Z,10.38
2023-05-06T13:36:36.493Z,10.11
2023-05-06T13:39:04.194Z,10.24
2023-05-06T13:41:30.741Z,10.34
2023-05-06T13:43:57.072Z,10.27
2023-05-06T13:46:23.473Z,9.91
2023-05-06T13:48:49.961Z,10.18
2023-05-06T13:51:16.267Z,10.23
2023-05-06T13:53:42.754Z,9.93
2023-05-06T13:56:09.391Z,9.99
2023-05-06T13:58:36.055Z,10.05
2023-05-06T14:01:03.477Z,10.18
2023-05-06T14:03:30.021Z,10.24
2023-05-06T14:05:56.367Z,10.03
2023-05-06T14:08:22.705Z,10.22
2023-05-06T14:10:49.276Z,10.25
2023-05-06T14:13:15.770Z,10.23
2023-05-06T14:15:42.147Z,10.36
2023-05-06T14:18:08.640Z,10.27
2023-05-06T14:20:34.979Z,10.33
2023-05-06T14:23:04.024Z,10.28
2023-05-06T14:25:30.434Z,10.18
2023-05-06T14:27:56.743Z,9.96
2023-05-06T14:30:23.170Z,10.00
2023-05-06T14:32:49.583Z,10.15
2023-05-06T14:35:16.026Z,9.77
2023-05-06T14:37:42.399Z,10.07
2023-05-06T14:40:10.077Z,10.19
2023-05-06T14:42:36.698Z,10.10
2023-05-06T14:45:03.644Z,10.15
2023-05-06T14:47:30.164Z,10.21
2023-05-06T14:49:56.589Z,9.76
2023-05-06T14:52:23.101Z,9.98
2023-05-06T14:54:49.480Z,10.16
2023-05-06T14:57:15.910Z,10.11
2023-05-06T14:59:42.297Z,10.20
2023-05-06T15:02:10.180Z,10.07
2023-05-06T15:04:36.995Z,10.27
2023-05-06T15:07:03.467Z,10.32
2023-05-06T15:09:29.888Z,10.18
2023-05-06T15:11:57.812Z,10.33
2023-05-06T15:14:24.204Z,10.28
2023-05-06T15:16:50.566Z,10.36
2023-05-06T15:19:16.919Z,10.29
2023-05-06T15:21:43.975Z,10.39
2023-05-06T15:24:10.417Z,10.45
2023-05-06T15:26:36.761Z,10.51
2023-05-06T15:29:03.352Z,10.45
2023-05-06T15:31:31.319Z,10.49
2023-05-06T15:34:00.375Z,10.37
2023-05-06T15:36:27.480Z,10.37
2023-05-06T15:39:00.201Z,10.42
2023-05-06T15:41:28.453Z,10.44
2023-05-06T15:43:56.410Z,10.35
2023-05-06T15:46:22.873Z,10.40
2023-05-06T15:48:54.178Z,10.42
2023-05-06T15:51:28.877Z,10.36
2023-05-06T15:53:55.284Z,10.33
2023-05-06T15:56:22.233Z,10.20
2023-05-06T15:58:49.748Z,10.23
2023-05-06T16:01:16.883Z,10.17
2023-05-06T16:03:47.833Z,10.30
2023-05-06T16:06:15.181Z,10.23
2023-05-06T16:08:41.493Z,10.28
2023-05-06T16:11:08.871Z,10.24
2023-05-06T16:13:35.229Z,9.97
2023-05-06T16:16:01.769Z,9.95
2023-05-06T16:18:28.242Z,10.06
2023-05-06T16:20:54.602Z,10.09
2023-05-06T16:23:21.692Z,10.14
2023-05-06T16:25:48.349Z,10.09
2023-05-06T16:28:14.803Z,9.59
2023-05-06T16:30:44.419Z,9.96
2023-05-06T16:33:12.004Z,10.04
2023-05-06T16:35:38.583Z,10.07
2023-05-06T16:38:04.954Z,10.07
2023-05-06T16:40:31.687Z,10.11
2023-05-06T16:42:58.117Z,10.21
2023-05-06T16:45:24.454Z,9.80
2023-05-06T16:47:50.812Z,9.89
2023-05-06T16:50:17.296Z,9.87
2023-05-06T16:52:43.679Z,9.89
2023-05-06T16:55:10.191Z,9.91
2023-05-06T16:57:36.596Z,9.91
2023-05-06T17:00:03.358Z,10.01
2023-05-06T17:02:29.765Z,9.97
2023-05-06T17:04:56.202Z,9.94
2023-05-06T17:07:22.504Z,9.78
2023-05-06T17:09:48.844Z,10.01
2023-05-06T17:12:15.623Z,10.00
2023-05-06T17:14:42.752Z,9.89
2023-05-06T17:17:09.105Z,9.96
2023-05-06T17:19:35.501Z,10.04
2023-05-06T17:22:01.904Z,10.07
2023-05-06T17:24:28.302Z,10.14
2023-05-06T17:26:54.706Z,10.13
2023-05-06T17:29:22.129Z,10.17
2023-05-06T17:31:49.621Z,10.12
2023-05-06T17:34:16.065Z,10.26
2023-05-06T17:36:42.411Z,10.23
2023-05-06T17:39:09.413Z,10.35
2023-05-06T17:41:35.889Z,10.24
2023-05-06T17:44:02.253Z,10.11
2023-05-06T17:46:28.733Z,10.21
2023-05-06T17:48:55.091Z,10.11
2023-05-06T17:51:21.839Z,9.84
2023-05-06T17:53:48.165Z,10.08
2023-05-06T17:56:14.554Z,10.01
2023-05-06T17:58:41.001Z,10.10
2023-05-06T18:01:07.456Z,10.11
2023-05-06T18:03:33.962Z,10.09
2023-05-06T18:06:00.598Z,10.12
2023-05-06T18:08:27.007Z,10.15
2023-05-06T18:10:53.705Z,10.11
2023-05-06T18:13:20.266Z,10.03
2023-05-06T18:15:46.731Z,10.02
2023-05-06T18:18:13.148Z,10.03
2023-05-06T18:20:39.885Z,9.96
2023-05-06T18:23:07.529Z,9.97
2023-05-06T18:25:34.245Z,9.97
2023-05-06T18:28:00.728Z,10.03
2023-05-06T18:30:27.209Z,10.05
2023-05-06T18:32:55.963Z,9.96
2023-05-06T18:35:23.171Z,9.99
2023-05-06T18:37:49.496Z,10.06
2023-05-06T18:40:16.143Z,10.09
2023-05-06T18:42:42.529Z,9.99
2023-05-06T18:45:09.397Z,10.06
2023-05-06T18:47:37.542Z,10.05
2023-05-06T18:50:04.023Z,10.06
2023-05-06T18:52:30.772Z,10.02
2023-05-06T18:54:57.147Z,9.96
2023-05-06T18:57:24.278Z,10.02
2023-05-06T18:59:50.929Z,10.00
2023-05-06T19:02:17.360Z,9.93
2023-05-06T19:04:44.004Z,9.90
2023-05-06T19:07:11.049Z,10.01
2023-05-06T19:09:37.397Z,10.03
2023-05-06T19:12:04.003Z,10.01
2023-05-06T19:14:32.289Z,9.96
2023-05-06T19:16:58.904Z,9.81
2023-05-06T19:19:25.332Z,9.90
2023-05-06T19:21:51.695Z,9.92
2023-05-06T19:24:18.109Z,9.92
2023-05-06T19:26:44.659Z,9.94
2023-05-06T19:29:11.016Z,9.83
2023-05-06T19:31:37.378Z,9.84
2023-05-06T19:34:03.940Z,9.94
2023-05-06T19:36:30.495Z,9.88
2023-05-06T19:38:56.919Z,9.86
2023-05-06T19:41:23.270Z,9.91
2023-05-06T19:43:51.229Z,9.91
2023-05-06T19:46:17.685Z,9.94
2023-05-06T19:48:45.251Z,10.05
2023-05-06T19:51:11.619Z,10.06
2023-05-06T19:53:38.097Z,10.12
2023-05-06T19:56:07.985Z,10.12
2023-05-06T19:58:34.400Z,10.11
2023-05-06T20:01:00.808Z,10.16
2023-05-06T20:03:27.309Z,9.97
2023-05-06T20:05:53.734Z,10.15
2023-05-06T20:08:20.088Z,10.06
2023-05-06T20:10:47.614Z,10.08
2023-05-06T20:13:13.978Z,10.09
2023-05-06T20:15:41.525Z,10.10
2023-05-06T20:18:08.024Z,10.14
2023-05-06T20:20:34.605Z,10.16
2023-05-06T20:23:03.697Z,10.06
2023-05-06T20:25:30.178Z,9.92
2023-05-06T20:27:56.905Z,10.00
2023-05-06T20:30:23.291Z,10.02
2023-05-06T20:32:51.897Z,10.08
2023-05-06T20:35:18.514Z,9.97
2023-05-06T20:37:44.984Z,10.09
2023-05-06T20:40:11.565Z,10.04
2023-05-06T20:42:37.901Z,10.07
2023-05-06T20:45:04.459Z,10.04
2023-05-06T20:47:31.001Z,10.09
2023-05-06T20:49:58.060Z,10.13
2023-05-06T20:52:24.437Z,9.96
2023-05-06T20:54:50.790Z,10.04
2023-05-06T20:57:17.494Z,10.03
2023-05-06T20:59:43.996Z,10.07
2023-05-06T21:02:10.706Z,10.01
2023-05-06T21:04:37.224Z,10.02
2023-05-06T21:07:03.574Z,10.01
2023-05-06T21:09:29.918Z,9.96
2023-05-06T21:11:56.295Z,9.97
2023-05-06T21:14:24.707Z,10.01
2023-05-06T21:16:51.899Z,9.93
2023-05-06T21:19:18.517Z,9.99
2023-05-06T21:21:44.974Z,10.05
2023-05-06T21:24:11.977Z,10.02
2023-05-06T21:26:38.918Z,10.04
2023-05-06T21:29:05.279Z,9.94
2023-05-06T21:31:31.815Z,9.97
2023-05-06T21:33:58.709Z,9.97
2023-05-06T21:36:25.292Z,9.96
2023-05-06T21:39:01.962Z,9.81
2023-05-06T21:41:28.308Z,9.86
2023-05-06T21:43:54.835Z,9.86
2023-05-06T21:46:21.155Z,9.89
2023-05-06T21:48:47.565Z,9.93
2023-05-06T21:51:13.877Z,9.87
2023-05-06T21:53:40.194Z,9.88
2023-05-06T21:56:06.508Z,9.92
2023-05-06T21:58:32.834Z,9.85
2023-05-06T22:00:59.192Z,9.91
2023-05-06T22:03:27.220Z,9.93
2023-05-06T22:05:53.616Z,9.91
2023-05-06T22:08:19.942Z,9.90
2023-05-06T22:10:46.292Z,9.94
2023-05-06T22:13:12.700Z,9.99
2023-05-06T22:15:39.056Z,10.01
2023-05-06T22:18:05.933Z,10.07
2023-05-06T22:20:33.002Z,10.06
2023-05-06T22:22:59.354Z,10.11
2023-05-06T22:25:25.778Z,10.19
2023-05-06T22:27:52.167Z,10.18
2023-05-06T22:30:18.571Z,10.24
2023-05-06T22:32:44.940Z,10.20
2023-05-06T22:35:11.451Z,10.22
2023-05-06T22:37:38.001Z,10.19
2023-05-06T22:40:04.626Z,10.21
2023-05-06T22:42:30.907Z,10.17
2023-05-06T22:44:57.252Z,10.20
2023-05-06T22:47:23.668Z,10.23
2023-05-06T22:49:50.025Z,10.17
2023-05-06T22:52:18.910Z,10.22
2023-05-06T22:54:45.210Z,10.14
2023-05-06T22:57:11.606Z,10.14
2023-05-06T22:59:37.919Z,10.17
2023-05-06T23:02:04.238Z,10.16
2023-05-06T23:04:30.673Z,10.18
2023-05-06T23:06:57.359Z,10.20
2023-05-06T23:09:23.772Z,10.18
2023-05-06T23:11:50.102Z,10.12
2023-05-06T23:14:17.272Z,10.13
2023-05-06T23:16:43.709Z,10.16
2023-05-06T23:19:10.082Z,10.09
2023-05-06T23:21:36.492Z,10.15
2023-05-06T23:24:02.863Z,10.03
2023-05-06T23:26:29.587Z,10.07
2023-05-06T23:28:55.953Z,10.01
2023-05-06T23:31:22.366Z,10.10
2023-05-06T23:33:48.737Z,10.03
2023-05-06T23:36:15.900Z,10.07
2023-05-06T23:38:42.392Z,10.06
2023-05-06T23:41:08.718Z,10.08
2023-05-06T23:43:35.094Z,10.06
2023-05-06T23:46:01.593Z,10.04
2023-05-06T23:48:27.938Z,10.04
2023-05-06T23:50:54.513Z,10.04
2023-05-06T23:53:21.354Z,10.06
2023-05-06T23:55:47.875Z,10.07
2023-05-06T23:58:14.344Z,10.06
